Kairo, Egipt

07:28 PM EET on junij 25, 2018 (GMT +0200)
Cairo | | Change Station

Viš 243 ft 30.13 °N, 31.40 °E | Updated 28 minutes ago

Jasno
Jasno
90 °F
Feels Like 91 °F
N
12
Veter Spremenljivo Veter od Sever

Danes
High -- | Low -- °F
--% Chance of Precip.
Yesterday
High -- | Low -- °F
Precip. -- v
Zračni tlak 29.80 v
Vidljivost -9999.0 milje
Oblaki
Toplotni indeks 91 °F
Rosišče 64 °F
Vlažnost 43%
Padavine 0.00 v
Snow Depth Not available.
4:54 AM 7:00 PM
Naraščajoča luna, 94% visible
METAR HECA 251700Z 35010KT CAVOK 32/18 Q1009 NOSIG
Zračni tlak 29.80 v
Vidljivost -9999.0 milje
Oblaki
Toplotni indeks 91 °F
Rosišče 64 °F
Vlažnost 43%
Padavine 0.00 v
Snow Depth Not available.
4:54 AM 7:00 PM
Naraščajoča luna, 94% visible
METAR HECA 251700Z 35010KT CAVOK 32/18 Q1009 NOSIG

Get Severe Weather Alerts

Thanks for signing up!

Be on the lookout for a verification email in your inbox.

You'll start receiving the daily forecast at 6 AM.

×

10-Day Weather Forecast

No radar image for this location.
×

Almanac

Astronomija

Jun. 25, 2018 Rise Set
Actual Time
Civil Twilight
Nautical Twilight
Astronomical Twilight
Moon
Length Of Visible Light
Dolžina dneva
Tomorrow will be .
, % of the Moon is Illuminated

Današnji ekstremi

Country Highs Country Lows

Community

WunderPhotos

Category 6

Welcome to Category 6. This is the collective home for Weather Underground's featured writeups by Dr. Jeff Masters (right), Bob Henson (left), Chris Burt, and other regular contributors.

Nearby

Air Quality

  Air Quality AQ Index Pollutant
Not available.

Snow Depth

Station Depth Višina

Earthquake Activity

City Distance Mag. Time & Date
Minimum magnitude displayed is 2.5.

Coastal Water Temperatures

Mesto Temperatura

Stations

Nearby Weather Stations

Station Location Temp Občutek zaradi vetra Rosišče Vlažnost Veter Precip. Viš Obnovljeno Type